Stonington, Connecticut
Current Conditions -  °F | °C
As of 9:53 AM on Friday 19 Dec 2014 (Local Time) from KWST Reporting Station
Clear Clear  
Wind Chill: 29°   Ceiling: Unl
Heat Index: 37°   Visibility: 10mi
Dew Point: 21°   Wind: 13mph
Humidity: 52%   Direction: 320°NW
Pressure: 29.99"   Gusts: 20mph
Location:  41.34°N, 71.91°W
Report Text: KWST 191453Z AUTO 32011G17KT 10SM CLR 03/M06 A2999 RMK AO2 SLP154 I3000 T00281061 53012
Loading
Personal Weather Stations






























Interactive Weather Map New forecast layout! Learn more

10-Day Weather Forecast

Advertisements
Track Severe Weather on mobile